Time;durP1;ratioP1;P1;durP2;ratioP2;P2;SDS_P1;SDS_P2;PMS_P1;PMS_P2;Temp;Humidity;BMP_temperature;BMP_pressure;BME280_temperature;BME280_humidity;BME280_pressure;Samples;Min_cycle;Max_cycle;Signal;HPM_P1;HPM_P2
2022/06/07 00:02:24;;;;;;;2.70;2.20;;;;;;;10.41;80.95;101773.91;5094905;28;20032;-69
2022/06/07 00:04:51;;;;;;;4.83;2.30;;;;;;;10.38;80.66;101775.00;5094746;28;20125;-65
2022/06/07 00:07:17;;;;;;;3.13;2.10;;;;;;;10.13;81.69;101736.41;5094710;28;20031;-68
2022/06/07 00:09:42;;;;;;;2.70;2.27;;;;;;;10.32;81.17;101772.88;5094935;28;20165;-68
2022/06/07 00:12:08;;;;;;;4.30;2.00;;;;;;;10.33;81.82;101782.56;5094950;28;20510;-68
2022/06/07 00:14:34;;;;;;;2.60;1.87;;;;;;;10.32;81.81;101775.56;5096213;28;20088;-66
2022/06/07 00:17:01;;;;;;;2.60;1.80;;;;;;;10.12;82.04;101734.72;5094111;28;20060;-67
2022/06/07 00:19:27;;;;;;;5.03;2.43;;;;;;;10.45;81.88;101775.31;5094761;28;20040;-66
2022/06/07 00:21:53;;;;;;;2.90;1.97;;;;;;;10.40;82.67;101761.56;5094707;28;20077;-67
2022/06/07 00:24:19;;;;;;;3.40;2.00;;;;;;;10.40;81.91;101765.06;5094725;28;20086;-67
2022/06/07 00:26:46;;;;;;;2.30;2.10;;;;;;;10.43;82.27;101771.97;5094512;28;20036;-66
2022/06/07 00:29:12;;;;;;;5.03;2.80;;;;;;;10.40;82.57;101769.53;5094975;28;20046;-67
2022/06/07 00:31:42;;;;;;;2.43;2.23;;;;;;;10.37;82.91;101764.50;5095385;28;20067;-68
2022/06/07 00:34:09;;;;;;;3.33;1.90;;;;;;;10.28;82.83;101755.50;5094793;28;20032;-67
2022/06/07 00:36:36;;;;;;;6.40;2.43;;;;;;;10.36;83.15;101774.28;5094656;28;20498;-68
2022/06/07 00:39:02;;;;;;;2.67;2.00;;;;;;;10.36;82.92;101768.13;5094767;28;20471;-67
2022/06/07 00:41:27;;;;;;;3.33;1.70;;;;;;;10.33;83.05;101771.06;5093161;28;20081;-68
2022/06/07 00:44:17;;;;;;;4.10;2.47;;;;;;;10.28;83.65;101757.31;5094570;28;20485;-67
2022/06/07 00:46:45;;;;;;;6.50;2.30;;;;;;;10.30;84.21;101758.03;5094530;28;20047;-67
2022/06/07 00:49:15;;;;;;;2.73;2.10;;;;;;;10.33;83.80;101760.41;5094233;28;20031;-68
2022/06/07 00:51:41;;;;;;;3.23;2.20;;;;;;;10.34;83.43;101770.09;5094229;28;20055;-66
2022/06/07 00:54:07;;;;;;;5.80;2.43;;;;;;;10.19;83.60;101746.50;5093870;28;20423;-67
2022/06/07 00:56:33;;;;;;;2.63;2.43;;;;;;;10.28;83.70;101760.00;5094067;28;20032;-67
2022/06/07 00:59:03;;;;;;;2.37;1.97;;;;;;;10.16;83.72;101745.94;5093972;28;20539;-68
2022/06/07 01:01:30;;;;;;;4.37;2.43;;;;;;;10.24;84.55;101757.59;5094021;28;20040;-66
2022/06/07 01:03:56;;;;;;;3.87;2.20;;;;;;;10.27;84.05;101758.31;5093963;28;20063;-67
2022/06/07 01:11:49;;;;;;;4.03;2.80;;;;;;;10.31;84.86;101754.38;5093793;28;20036;-67
2022/06/07 01:14:15;;;;;;;4.00;2.57;;;;;;;10.23;84.85;101734.63;5092636;28;20553;-68
2022/06/07 01:16:44;;;;;;;2.97;2.27;;;;;;;10.28;84.54;101747.53;5093572;28;20090;-67
2022/06/07 01:19:09;;;;;;;4.47;2.60;;;;;;;10.33;84.71;101747.09;5093585;28;20048;-67
2022/06/07 01:21:37;;;;;;;3.30;2.23;;;;;;;10.33;84.74;101753.28;5093393;28;20054;-69
2022/06/07 01:24:04;;;;;;;6.17;2.97;;;;;;;10.29;84.40;101745.69;5091873;28;20494;-68
2022/06/07 01:26:30;;;;;;;6.23;2.90;;;;;;;10.32;84.60;101742.75;5085652;28;20143;-67
2022/06/07 01:28:55;;;;;;;3.17;2.10;;;;;;;10.27;84.63;101732.53;5093208;28;20040;-67
2022/06/07 01:31:21;;;;;;;6.63;2.27;;;;;;;10.35;84.15;101745.16;5093590;28;20085;-67
2022/06/07 01:33:46;;;;;;;3.60;2.13;;;;;;;10.34;84.42;101752.28;5093167;28;20044;-68
2022/06/07 01:36:14;;;;;;;2.90;2.40;;;;;;;10.39;84.66;101751.88;5093235;28;20475;-68
2022/06/07 01:38:41;;;;;;;5.77;2.27;;;;;;;10.31;84.27;101733.09;5092948;28;20028;-67
2022/06/07 01:43:52;;;;;;;2.57;2.37;;;;;;;10.44;84.36;101749.66;5072965;28;20094;-67
2022/06/07 01:46:18;;;;;;;3.33;2.63;;;;;;;10.44;84.12;101750.50;5071874;28;20538;-68
2022/06/07 01:48:46;;;;;;;2.90;2.53;;;;;;;10.48;83.82;101751.06;5072734;28;20120;-67
2022/06/07 01:51:12;;;;;;;5.47;2.80;;;;;;;10.48;84.29;101751.06;5072592;28;20063;-68
2022/06/07 01:53:39;;;;;;;5.80;2.73;;;;;;;10.50;84.20;101754.44;5072237;28;20037;-68
2022/06/07 01:56:16;;;;;;;5.33;2.47;;;;;;;10.57;83.56;101746.72;5090400;28;20131;-67
2022/06/07 01:58:43;;;;;;;3.57;2.43;;;;;;;10.58;83.99;101754.59;5092808;28;20078;-67
2022/06/07 02:01:09;;;;;;;3.87;3.17;;;;;;;10.58;83.91;101751.91;5093165;28;20043;-67
2022/06/07 02:03:35;;;;;;;3.13;2.40;;;;;;;10.63;83.58;101755.00;5092659;28;20093;-66
2022/06/07 02:06:13;;;;;;;3.90;3.07;;;;;;;10.65;83.34;101755.69;5092919;28;20035;-68
2022/06/07 02:08:41;;;;;;;3.72;2.65;;;;;;;10.60;82.69;101747.28;5093296;28;20085;-65
2022/06/07 02:11:15;;;;;;;6.43;2.60;;;;;;;10.74;82.92;101756.72;5095926;28;20040;-68
2022/06/07 02:13:41;;;;;;;4.17;2.60;;;;;;;10.77;81.67;101751.94;5092617;28;20666;-69
2022/06/07 02:16:11;;;;;;;2.80;2.50;;;;;;;10.84;81.29;101752.22;5092619;28;20052;-68
2022/06/07 02:18:38;;;;;;;3.10;2.37;;;;;;;10.92;80.46;101759.50;5092541;28;20067;-70
2022/06/07 02:21:04;;;;;;;4.13;2.00;;;;;;;10.97;80.81;101760.75;5092640;28;20039;-67
2022/06/07 02:23:31;;;;;;;4.57;2.53;;;;;;;10.74;80.79;101720.25;5092539;28;20463;-68
2022/06/07 02:25:59;;;;;;;3.70;2.40;;;;;;;11.05;80.78;101755.59;5092547;28;20035;-69
2022/06/07 02:28:30;;;;;;;6.43;2.88;;;;;;;11.06;80.80;101751.09;5092352;28;20126;-68
2022/06/07 02:30:58;;;;;;;4.43;2.10;;;;;;;11.08;80.85;101749.13;5093029;28;20066;-69
2022/06/07 02:33:26;;;;;;;6.05;2.30;;;;;;;11.08;80.96;101751.78;5092194;28;20388;-68
2022/06/07 02:35:51;;;;;;;3.63;1.90;;;;;;;11.08;80.87;101754.47;5092525;28;20413;-66
2022/06/07 02:38:17;;;;;;;4.53;2.30;;;;;;;11.13;80.83;101749.53;5092238;28;20043;-70
2022/06/07 02:40:45;;;;;;;4.40;2.40;;;;;;;11.26;81.14;101762.56;5092188;28;20036;-70
2022/06/07 02:43:11;;;;;;;3.13;2.13;;;;;;;11.04;80.26;101721.91;5092285;28;20403;-68
2022/06/07 02:45:36;;;;;;;2.37;2.17;;;;;;;11.37;80.05;101765.94;5092421;28;20040;-68
2022/06/07 02:48:02;;;;;;;4.17;2.40;;;;;;;11.46;80.01;101769.56;5092691;28;20035;-68
2022/06/07 02:50:28;;;;;;;3.17;2.80;;;;;;;12.73;76.65;101770.69;5092235;28;20032;-67
2022/06/07 02:52:53;;;;;;;3.10;2.80;;;;;;;15.15;68.19;101761.38;5092010;28;20032;-67
2022/06/07 02:55:19;;;;;;;3.80;2.47;;;;;;;17.52;59.29;101761.88;5091855;28;20040;-70
2022/06/07 02:57:44;;;;;;;2.53;2.33;;;;;;;19.22;53.40;101747.97;5091898;28;20480;-69
2022/06/07 03:00:13;;;;;;;3.27;2.23;;;;;;;20.32;49.63;101758.03;5092015;28;20407;-68
2022/06/07 03:02:39;;;;;;;2.73;2.43;;;;;;;21.16;47.49;101755.72;5092246;28;20040;-67
2022/06/07 03:05:05;;;;;;;4.47;2.43;;;;;;;21.96;44.50;101757.25;5093136;28;20035;-67
2022/06/07 03:07:31;;;;;;;2.53;2.33;;;;;;;22.39;43.48;101751.28;5096151;28;20551;-68
2022/06/07 03:09:57;;;;;;;3.07;2.70;;;;;;;22.61;41.92;101761.84;5096142;28;20036;-68
2022/06/07 03:12:22;;;;;;;3.70;2.57;;;;;;;22.81;41.74;101762.56;5095873;28;20046;-68
2022/06/07 03:14:48;;;;;;;2.87;2.67;;;;;;;23.29;40.20;101760.09;5095851;28;20479;-68
2022/06/07 03:17:16;;;;;;;2.90;2.43;;;;;;;23.09;39.64;101752.09;5096440;28;20056;-66
2022/06/07 03:19:47;;;;;;;3.50;2.23;;;;;;;23.33;39.27;101760.47;5095651;28;20050;-65
2022/06/07 03:22:14;;;;;;;3.20;2.00;;;;;;;22.91;39.57;101757.47;5095873;28;20110;-68
2022/06/07 03:24:39;;;;;;;2.43;2.20;;;;;;;22.95;39.89;101758.69;5095688;28;20028;-68
2022/06/07 03:27:05;;;;;;;5.77;2.67;;;;;;;23.43;38.68;101769.81;5095612;28;20032;-69
2022/06/07 03:29:30;;;;;;;3.30;2.20;;;;;;;23.43;38.55;101766.25;5095852;28;20043;-68
2022/06/07 03:31:56;;;;;;;2.93;2.33;;;;;;;23.24;38.98;101743.63;5096219;28;20127;-67
2022/06/07 03:34:21;;;;;;;2.47;2.27;;;;;;;23.27;39.08;101764.09;5095623;28;20482;-66
2022/06/07 03:36:47;;;;;;;2.37;2.17;;;;;;;23.39;38.99;101767.72;5095576;28;20146;-68
2022/06/07 03:39:12;;;;;;;5.23;2.70;;;;;;;23.54;38.75;101765.50;5094016;28;20131;-68
2022/06/07 03:41:38;;;;;;;5.53;2.80;;;;;;;23.77;38.42;101768.44;5095695;28;20036;-67
2022/06/07 03:44:04;;;;;;;5.37;2.10;;;;;;;24.01;37.82;101765.88;5095677;28;20056;-70
2022/06/07 03:46:32;;;;;;;2.57;1.97;;;;;;;24.02;37.94;101768.38;5095791;28;20043;-66
2022/06/07 03:48:59;;;;;;;4.22;1.98;;;;;;;23.97;37.72;101768.22;5095532;28;20028;-68
2022/06/07 03:51:25;;;;;;;2.05;1.88;;;;;;;;;;5095292;28;20047;-70
2022/06/07 03:53:51;;;;;;;3.35;2.00;;;;;;;24.12;37.37;101761.56;5095285;28;20117;-68
2022/06/07 03:56:18;;;;;;;3.15;2.67;;;;;;;24.14;37.19;101763.00;5095401;28;20467;-68
2022/06/07 03:58:43;;;;;;;6.07;2.28;;;;;;;;;;5095204;28;20036;-68
2022/06/07 04:01:15;;;;;;;3.90;2.03;;;;;;;23.95;37.13;101758.63;5095379;28;20028;-66
2022/06/07 04:03:43;;;;;;;5.65;3.10;;;;;;;24.38;36.73;101764.81;5094490;28;20040;-69
2022/06/07 04:06:16;;;;;;;3.75;2.05;;;;;;;24.31;36.69;101745.03;5095314;28;20063;-66
2022/06/07 04:08:42;;;;;;;6.05;3.00;;;;;;;24.32;36.70;101770.34;5095095;28;20036;-69
2022/06/07 04:11:11;;;;;;;6.88;2.53;;;;;;;24.36;36.35;101764.22;5094917;28;20036;-68
2022/06/07 04:13:37;;;;;;;2.50;2.30;;;;;;;24.52;35.51;101745.56;5094874;28;20403;-69
2022/06/07 04:16:09;;;;;;;5.60;2.83;;;;;;;24.80;35.51;101759.38;5094299;28;20052;-67
2022/06/07 04:18:35;;;;;;;6.35;2.67;;;;;;;24.71;35.73;101755.34;5094828;28;20082;-68
2022/06/07 04:21:01;;;;;;;4.18;2.13;;;;;;;24.77;36.20;101750.84;5094676;28;20059;-68
2022/06/07 04:23:26;;;;;;;4.45;2.75;;;;;;;24.75;36.17;101755.72;5095140;28;20086;-68
2022/06/07 04:25:53;;;;;;;3.53;2.20;;;;;;;24.84;36.05;101746.97;5093283;28;20052;-72
2022/06/07 04:28:19;;;;;;;2.53;2.05;;;;;;;24.86;35.67;101741.28;5093152;28;20046;-73
2022/06/07 04:30:46;;;;;;;3.00;2.08;;;;;;;24.92;35.24;101749.38;5094642;28;20040;-73
2022/06/07 04:33:16;;;;;;;3.33;2.05;;;;;;;24.80;35.09;101725.88;5095838;28;20043;-72
2022/06/07 04:35:44;;;;;;;3.60;2.03;;;;;;;25.21;34.89;101744.09;5094289;28;20036;-79
2022/06/07 04:38:13;;;;;;;3.53;2.05;;;;;;;25.23;34.69;101741.97;5093427;28;20388;-72
2022/06/07 04:40:53;;;;;;;5.95;2.33;;;;;;;25.03;35.02;101747.75;5095760;28;20123;-74
2022/06/07 04:43:18;;;;;;;2.60;2.33;;;;;;;25.11;34.94;101757.47;5096553;28;20126;-77
2022/06/07 04:45:44;;;;;;;2.83;1.90;;;;;;;24.97;34.79;101749.50;5093152;28;20235;-77
2022/06/07 04:48:11;;;;;;;3.78;2.35;;;;;;;24.97;35.08;101754.13;5099147;28;20119;-75
2022/06/07 04:50:36;;;;;;;2.97;2.20;;;;;;;24.72;35.04;101743.38;5094628;28;20040;-77
2022/06/07 04:53:02;;;;;;;3.70;2.03;;;;;;;24.79;34.85;101743.28;5095441;28;20032;-77
2022/06/07 04:55:28;;;;;;;4.18;2.53;;;;;;;24.99;34.14;101747.38;5094208;28;20437;-76
2022/06/07 04:57:53;;;;;;;7.35;2.42;;;;;;;25.26;33.62;101746.94;5094348;28;20032;-80
2022/06/07 05:00:19;;;;;;;4.50;1.90;;;;;;;25.40;33.44;101745.63;5096747;28;20043;-78
2022/06/07 05:02:47;;;;;;;3.65;1.60;;;;;;;24.94;34.22;101739.06;5101983;28;20069;-76
2022/06/07 05:05:15;;;;;;;2.65;1.70;;;;;;;24.76;34.31;101736.41;5097889;28;20138;-76
2022/06/07 05:07:41;;;;;;;4.25;2.00;;;;;;;24.45;34.41;101733.94;5093973;28;20036;-79
2022/06/07 05:10:11;;;;;;;3.22;1.80;;;;;;;24.20;35.21;101740.31;5093954;28;20127;-78
2022/06/07 05:12:37;;;;;;;2.70;2.33;;;;;;;24.08;35.15;101739.44;5092931;28;20119;-78
2022/06/07 05:15:04;;;;;;;5.55;2.15;;;;;;;23.90;35.93;101726.66;5093614;28;20042;-76
2022/06/07 05:17:30;;;;;;;3.92;2.20;;;;;;;23.37;36.55;101737.22;5099030;28;20060;-73
2022/06/07 05:19:56;;;;;;;3.03;1.88;;;;;;;22.83;37.06;101714.28;5096659;28;20189;-77
2022/06/07 05:22:22;;;;;;;4.30;1.45;;;;;;;21.94;39.48;101726.81;5092305;28;20028;-68
2022/06/07 05:24:48;;;;;;;3.60;1.50;;;;;;;20.67;43.30;101729.00;5093099;28;20028;-72
2022/06/07 05:27:18;;;;;;;4.63;1.73;;;;;;;19.27;45.50;101721.22;5093022;28;20040;-72
2022/06/07 05:29:46;;;;;;;5.15;1.52;;;;;;;18.50;48.11;101723.78;5093412;28;20073;-77
2022/06/07 05:32:11;;;;;;;2.60;1.55;;;;;;;18.07;50.17;101723.72;5094730;28;20115;-71
2022/06/07 05:34:37;;;;;;;4.05;1.40;;;;;;;17.72;51.27;101719.97;5098150;28;20134;-74
2022/06/07 05:37:03;;;;;;;6.05;1.60;;;;;;;17.46;52.22;101712.31;5093387;28;20040;-72
2022/06/07 05:39:30;;;;;;;3.28;1.92;;;;;;;17.32;52.41;101722.00;5093256;28;20032;-72
2022/06/07 05:41:56;;;;;;;4.57;2.72;;;;;;;17.11;52.81;101711.13;5093240;28;20542;-69
2022/06/07 05:44:24;;;;;;;4.70;2.40;;;;;;;16.88;54.38;101719.22;5093220;28;20031;-66
2022/06/07 05:46:50;;;;;;;3.93;1.63;;;;;;;16.73;55.26;101696.81;5092890;28;20047;-66
2022/06/07 05:49:16;;;;;;;4.10;2.17;;;;;;;16.76;55.05;101709.06;5092911;28;20270;-65
2022/06/07 05:51:42;;;;;;;3.67;1.87;;;;;;;16.82;54.76;101717.28;5092863;28;20054;-70
2022/06/07 05:54:07;;;;;;;3.47;2.53;;;;;;;16.82;54.64;101717.28;5093009;28;20517;-70
2022/06/07 05:56:34;;;;;;;3.50;1.67;;;;;;;16.81;55.17;101704.84;5092930;28;20495;-71
2022/06/07 05:59:00;;;;;;;4.47;2.00;;;;;;;16.86;56.35;101701.59;5092597;28;20043;-70
2022/06/07 06:01:27;;;;;;;6.83;3.20;;;;;;;16.90;56.16;101714.50;5092627;28;20039;-70
2022/06/07 06:03:55;;;;;;;2.07;1.80;;;;;;;16.97;55.70;101714.63;5092931;28;20042;-69
2022/06/07 06:06:47;;;;;;;5.40;1.63;;;;;;;16.90;55.55;101708.28;5093078;28;20059;-67
2022/06/07 06:11:57;;;;;;;6.27;1.97;;;;;;;16.84;55.12;101712.53;5092788;28;20487;-66
2022/06/07 06:14:23;;;;;;;5.27;2.30;;;;;;;16.81;56.42;101707.53;5092715;28;20039;-74
2022/06/07 06:16:52;;;;;;;3.80;2.07;;;;;;;16.88;55.43;101705.78;5092485;28;20056;-72
2022/06/07 06:19:36;;;;;;;4.13;2.03;;;;;;;16.88;55.00;101711.16;5116623;27;1302158;-73
2022/06/07 06:22:08;;;;;;;3.73;1.67;;;;;;;16.81;55.13;101699.47;5130982;28;20043;-72
2022/06/07 06:24:33;;;;;;;3.60;1.97;;;;;;;16.79;54.74;101711.41;5127121;28;20476;-77
2022/06/07 06:26:59;;;;;;;4.23;1.70;;;;;;;16.79;55.27;101716.81;5130025;27;20035;-73
2022/06/07 06:29:25;;;;;;;6.07;1.93;;;;;;;16.80;55.88;101708.56;5129674;27;20419;-65
2022/06/07 06:31:51;;;;;;;3.63;1.87;;;;;;;16.81;54.40;101715.59;5129519;27;20387;-68
2022/06/07 06:34:18;;;;;;;5.10;1.60;;;;;;;16.75;55.84;101716.28;5132966;27;20035;-74
2022/06/07 06:36:45;;;;;;;5.17;1.73;;;;;;;16.75;54.81;101713.59;5131050;28;20035;-70
2022/06/07 06:39:10;;;;;;;3.27;1.50;;;;;;;16.72;55.62;101705.91;5130198;27;20039;-72
2022/06/07 06:41:37;;;;;;;3.33;1.83;;;;;;;16.71;54.51;101709.59;5129935;27;20418;-69
2022/06/07 06:44:03;;;;;;;5.50;1.77;;;;;;;16.79;56.14;101716.81;5129268;27;20490;-68
2022/06/07 06:46:34;;;;;;;3.13;2.30;;;;;;;16.87;55.13;101708.66;5128465;28;20058;-72
2022/06/07 06:49:02;;;;;;;12.03;1.90;;;;;;;16.74;54.76;101693.09;5129081;27;20031;-67
2022/06/07 06:51:29;;;;;;;2.88;1.40;;;;;;;16.91;53.94;101708.09;5129916;27;20522;-68
2022/06/07 06:53:59;;;;;;;3.50;2.20;;;;;;;17.00;54.23;101708.88;5130071;27;20035;-69
2022/06/07 06:56:25;;;;;;;4.30;1.60;;;;;;;17.07;53.55;101719.78;5130508;27;20486;-70
2022/06/07 06:58:52;;;;;;;8.47;1.93;;;;;;;17.09;54.71;101712.34;5129965;27;20047;-71
2022/06/07 07:01:31;;;;;;;6.03;1.60;;;;;;;17.07;53.96;101711.69;5129690;27;20071;-68
2022/06/07 07:03:58;;;;;;;6.00;1.57;;;;;;;17.07;53.59;101704.44;5127475;28;20043;-65
2022/06/07 07:06:25;;;;;;;2.70;1.63;;;;;;;17.09;54.60;101696.19;5129648;27;20039;-70
2022/06/07 07:08:52;;;;;;;8.37;1.83;;;;;;;17.26;53.10;101705.78;5128948;28;20038;-73
2022/06/07 07:11:20;;;;;;;5.10;2.10;;;;;;;17.38;53.01;101707.00;5129014;27;20036;-70
2022/06/07 07:13:47;;;;;;;6.78;1.90;;;;;;;17.44;51.19;101700.88;5128748;27;20027;-73
2022/06/07 07:16:18;;;;;;;7.87;2.00;;;;;;;17.53;51.76;101698.94;5128701;27;20133;-71
2022/06/07 07:18:46;;;;;;;3.30;1.43;;;;;;;17.54;51.26;101706.81;5127143;28;20116;-71
2022/06/07 07:21:18;;;;;;;3.03;1.40;;;;;;;17.57;51.30;101695.66;5129407;28;20046;-69
2022/06/07 07:23:44;;;;;;;3.90;1.83;;;;;;;17.59;50.26;101693.63;5128489;27;20031;-72
2022/06/07 07:26:14;;;;;;;3.03;1.70;;;;;;;17.74;50.28;101700.91;5128563;27;20042;-70
2022/06/07 07:28:40;;;;;;;1.90;1.70;;;;;;;17.76;48.97;101696.16;5127683;27;20032;-68
2022/06/07 07:31:10;;;;;;;4.37;1.60;;;;;;;17.94;48.74;101702.00;5113951;28;20039;-67
2022/06/07 07:33:36;;;;;;;6.43;1.50;;;;;;;17.81;47.73;101662.25;5114626;28;20024;-69
2022/06/07 07:36:04;;;;;;;3.27;1.47;;;;;;;18.03;47.77;101703.56;5115081;28;20088;-67
2022/06/07 07:38:29;;;;;;;5.85;1.90;;;;;;;18.07;47.71;101695.94;5111656;28;20023;-67
2022/06/07 07:40:55;;;;;;;4.20;1.67;;;;;;;18.20;48.04;101705.00;5114147;28;20108;-66
2022/06/07 07:43:21;;;;;;;5.82;1.90;;;;;;;18.14;47.69;101702.25;5114481;28;20031;-65
2022/06/07 07:45:54;;;;;;;7.93;1.70;;;;;;;18.17;47.26;101686.50;5114360;28;20044;-65
2022/06/07 07:48:21;;;;;;;6.15;1.50;;;;;;;18.18;46.93;101677.41;5114546;28;20080;-65
2022/06/07 07:50:47;;;;;;;2.88;1.52;;;;;;;18.19;45.72;101695.25;5115019;28;20471;-68
2022/06/07 07:53:14;;;;;;;7.60;2.03;;;;;;;18.17;46.92;101686.50;5114235;28;20037;-63
2022/06/07 07:55:44;;;;;;;8.30;2.13;;;;;;;18.16;45.79;101684.00;5114382;28;20036;-65
2022/06/07 07:58:11;;;;;;;6.50;1.57;;;;;;;18.30;45.56;101690.41;5111660;28;20040;-63
2022/06/07 08:00:37;;;;;;;2.53;1.50;;;;;;;18.19;43.28;101679.06;5112151;28;20035;-67
2022/06/07 08:03:03;;;;;;;2.35;1.48;;;;;;;18.13;43.43;101684.41;5114136;28;20077;-67
2022/06/07 08:05:31;;;;;;;2.15;1.38;;;;;;;17.99;43.24;101672.63;5114191;28;20038;-66
2022/06/07 08:07:56;;;;;;;1.20;1.10;;;;;;;17.99;42.68;101679.88;5113295;28;20051;-65
2022/06/07 08:10:22;;;;;;;2.78;1.65;;;;;;;17.98;41.29;101684.44;5113790;28;20103;-66
2022/06/07 08:12:48;;;;;;;14.32;3.25;;;;;;;17.90;42.59;101681.84;5114034;28;20591;-72
2022/06/07 08:15:15;;;;;;;2.05;1.30;;;;;;;17.50;42.07;101640.88;5114541;28;20039;-66
2022/06/07 08:17:43;;;;;;;3.70;1.30;;;;;;;17.73;42.33;101683.06;5115618;28;20142;-69
2022/06/07 08:20:10;;;;;;;7.28;2.83;;;;;;;17.84;43.23;101685.28;5101285;28;20109;-66
2022/06/07 08:22:36;;;;;;;3.60;1.60;;;;;;;17.82;39.95;101682.78;5101068;28;20513;-63
2022/06/07 08:25:02;;;;;;;3.50;2.75;;;;;;;17.87;40.44;101684.91;5113303;28;20027;-64
2022/06/07 08:27:28;;;;;;;2.33;1.40;;;;;;;17.81;39.94;101686.50;5114176;27;20123;-67
2022/06/07 08:29:54;;;;;;;2.50;1.40;;;;;;;17.80;39.49;101697.47;5114402;28;20059;-64
2022/06/07 08:32:19;;;;;;;2.63;1.50;;;;;;;17.75;38.01;101686.41;5113074;28;20505;-68
2022/06/07 08:37:38;;;;;;;4.73;3.37;;;;;;;17.78;37.85;101673.41;5113434;28;20028;-63
2022/06/07 08:40:12;;;;;;;4.47;2.23;;;;;;;17.90;37.84;101679.97;5110757;28;20027;-71
2022/06/07 08:42:48;;;;;;;1.95;1.35;;;;;;;18.03;37.32;101673.09;5118392;28;20065;-69
2022/06/07 08:45:19;;;;;;;1.27;1.17;;;;;;;17.99;35.85;101671.81;5116139;28;20035;-67
2022/06/07 08:47:47;;;;;;;6.50;2.20;;;;;;;17.93;35.75;101671.53;5109642;28;20038;-69
2022/06/07 08:50:21;;;;;;;2.10;0.90;;;;;;;17.91;37.01;101664.63;5103566;28;20047;-67
2022/06/07 08:52:51;;;;;;;2.30;1.33;;;;;;;17.91;36.68;101646.59;5111917;28;20070;-68
2022/06/07 08:55:32;;;;;;;4.57;1.83;;;;;;;18.07;36.05;101661.72;5103542;28;20044;-64
2022/06/07 08:58:11;;;;;;;3.38;1.25;;;;;;;17.98;34.71;101668.28;5094072;28;20040;-63
2022/06/07 09:00:40;;;;;;;;;;;;;;;18.01;35.23;101665.19;5093625;28;20410;-69
2022/06/07 09:03:36;;;;;;;5.28;1.77;;;;;;;17.95;35.38;101660.56;5093204;28;19947;-69
2022/06/07 09:06:04;;;;;;;2.53;1.48;;;;;;;17.99;35.70;101666.41;5094881;28;20040;-67
2022/06/07 09:08:42;;;;;;;;;;;;;;;18.01;35.73;101670.59;5093515;28;20047;-73
2022/06/07 09:14:05;;;;;;;1.83;1.20;;;;;;;17.90;35.63;101662.97;5092708;28;20043;-70
2022/06/07 09:16:42;;;;;;;2.75;0.80;;;;;;;17.88;35.71;101665.84;5092597;28;20502;-69
2022/06/07 09:19:16;;;;;;;5.60;1.47;;;;;;;17.89;36.06;101664.81;5092550;28;20146;-68
2022/06/07 09:21:44;;;;;;;1.63;1.10;;;;;;;17.87;36.14;101661.50;5093476;28;20092;-73
2022/06/07 09:24:27;;;;;;;1.90;1.10;;;;;;;17.92;36.52;101655.53;5093009;28;20506;-69
2022/06/07 09:27:04;;;;;;;3.63;1.40;;;;;;;17.95;36.88;101655.19;5092865;28;20121;-71
2022/06/07 09:29:35;;;;;;;2.28;1.60;;;;;;;18.03;36.39;101654.22;5092414;28;20052;-72
2022/06/07 09:32:00;;;;;;;7.55;1.95;;;;;;;17.84;35.76;101607.97;5092925;28;20032;-75
2022/06/07 09:34:28;;;;;;;5.65;1.33;;;;;;;18.11;35.19;101649.53;5093271;28;20040;-75
2022/06/07 09:37:02;;;;;;;5.13;1.60;;;;;;;18.02;34.92;101628.28;5095821;28;20032;-75
2022/06/07 09:39:32;;;;;;;12.75;3.20;;;;;;;18.05;33.28;101650.31;5100284;28;20074;-74
2022/06/07 09:42:16;;;;;;;6.30;1.40;;;;;;;17.99;34.18;101644.84;5092359;28;20048;-74
2022/06/07 09:44:54;;;;;;;4.78;1.42;;;;;;;17.81;34.19;101621.84;5093003;28;20036;-76
2022/06/07 09:47:22;;;;;;;8.02;1.35;;;;;;;17.83;32.28;101641.34;5092732;28;20503;-75
2022/06/07 09:50:07;;;;;;;2.75;1.00;;;;;;;17.85;34.19;101641.16;5092668;28;20047;-75
2022/06/07 09:52:45;;;;;;;3.55;1.27;;;;;;;17.88;33.42;101640.75;5095890;28;20032;-73
2022/06/07 09:55:26;;;;;;;2.05;0.88;;;;;;;17.86;34.19;101630.19;5095610;28;20035;-70
2022/06/07 09:57:57;;;;;;;3.92;1.45;;;;;;;17.87;33.57;101629.16;5091100;28;20085;-73
2022/06/07 10:01:00;;;;;;;5.00;1.23;;;;;;;17.97;33.44;101631.56;5092239;28;20031;-74
2022/06/07 10:03:37;;;;;;;5.63;3.22;;;;;;;17.99;34.19;101624.13;5092316;28;20439;-68
2022/06/07 10:06:40;;;;;;;2.97;1.02;;;;;;;18.08;34.31;101617.56;5094792;28;20035;-70
2022/06/07 10:09:39;;;;;;;4.78;1.58;;;;;;;18.13;34.28;101617.84;5053159;28;20545;-72
2022/06/07 10:12:43;;;;;;;9.38;1.83;;;;;;;18.16;34.67;101620.13;5091765;28;20464;-66
2022/06/07 10:15:27;;;;;;;3.67;1.35;;;;;;;18.12;34.21;101621.56;5091802;28;20043;-65
2022/06/07 10:18:46;;;;;;;2.10;1.20;;;;;;;18.16;35.06;101609.34;5092069;28;20059;-72
2022/06/07 10:21:28;;;;;;;3.22;1.20;;;;;;;18.20;35.14;101613.34;5050410;28;20059;-64
2022/06/07 10:24:12;;;;;;;2.83;1.10;;;;;;;18.17;34.69;101611.03;5092419;28;20101;-65
2022/06/07 10:26:58;;;;;;;3.22;1.30;;;;;;;18.20;34.94;101621.41;5095676;28;20031;-71
2022/06/07 10:29:41;;;;;;;2.13;1.67;;;;;;;18.15;35.38;101605.00;5112322;28;20039;-69
2022/06/07 10:32:22;;;;;;;2.15;1.30;;;;;;;18.23;35.31;101620.22;5112173;28;20075;-69
2022/06/07 10:34:47;;;;;;;1.83;1.25;;;;;;;18.22;35.48;101608.63;5112264;28;20146;-69
2022/06/07 10:38:01;;;;;;;2.40;1.15;;;;;;;18.34;36.14;101608.94;5112881;28;20534;-67
2022/06/07 10:40:35;;;;;;;6.60;2.13;;;;;;;18.35;35.91;101605.19;5064335;28;20047;-68
2022/06/07 10:43:08;;;;;;;4.80;1.40;;;;;;;18.35;36.29;101602.50;5111938;28;20509;-69
2022/06/07 10:45:37;;;;;;;3.83;1.30;;;;;;;18.32;35.93;101605.59;5113041;28;20027;-72
2022/06/07 10:48:18;;;;;;;3.08;1.20;;;;;;;18.35;35.53;101601.66;5112645;28;20042;-67
2022/06/07 10:50:55;;;;;;;4.13;1.33;;;;;;;18.31;35.86;101593.13;5111709;28;20089;-66
2022/06/07 10:53:33;;;;;;;3.38;1.48;;;;;;;18.39;35.90;101592.16;5112162;28;20027;-66
2022/06/07 10:56:06;;;;;;;3.60;1.33;;;;;;;18.36;35.85;101584.47;5112314;28;20047;-66
2022/06/07 10:58:38;;;;;;;2.03;1.10;;;;;;;18.34;35.13;101578.44;5111686;28;20070;-65
2022/06/07 11:01:23;;;;;;;5.78;1.00;;;;;;;18.39;35.73;101589.47;5111666;28;20035;-68
2022/06/07 11:03:58;;;;;;;3.53;1.48;;;;;;;18.39;35.61;101593.00;5110662;28;20492;-72
2022/06/07 11:09:38;;;;;;;2.95;1.45;;;;;;;18.42;35.51;101586.38;5117766;28;20526;-70
2022/06/07 11:12:13;;;;;;;3.97;2.03;;;;;;;18.27;36.04;101576.50;5115707;28;20035;-64
2022/06/07 11:15:01;;;;;;;9.18;3.03;;;;;;;18.43;36.00;101588.03;5115601;28;20039;-73
2022/06/07 11:17:47;;;;;;;2.50;1.23;;;;;;;18.47;35.30;101590.16;5115028;28;20089;-69
2022/06/07 11:20:27;;;;;;;4.93;2.35;;;;;;;18.47;36.61;101563.19;5115779;28;20047;-66
2022/06/07 11:23:11;;;;;;;2.03;1.05;;;;;;;18.64;35.48;101592.63;5115315;28;20135;-67
2022/06/07 11:26:07;;;;;;;3.20;1.10;;;;;;;18.57;35.38;101581.75;5115994;28;20169;-69
2022/06/07 11:28:35;;;;;;;1.27;1.00;;;;;;;18.40;35.44;101577.66;5115088;28;20033;-66
2022/06/07 11:31:39;;;;;;;2.08;1.30;;;;;;;18.43;35.31;101577.25;5115650;28;20486;-67
2022/06/07 11:34:25;;;;;;;6.90;1.55;;;;;;;18.46;35.73;101576.88;5104588;28;20046;-69
2022/06/07 11:36:56;;;;;;;12.82;2.22;;;;;;;18.43;35.51;101583.47;5106143;28;20044;-71
2022/06/07 11:39:30;;;;;;;3.65;1.85;;;;;;;18.38;35.00;101574.31;5116194;27;20130;-70
2022/06/07 11:42:16;;;;;;;4.55;1.27;;;;;;;18.34;35.53;101567.63;5110295;28;20542;-67
2022/06/07 11:44:41;;;;;;;1.35;1.15;;;;;;;18.31;34.66;101576.13;5101438;28;20035;-68
2022/06/07 11:47:07;;;;;;;2.88;1.27;;;;;;;18.31;34.98;101573.44;5094548;28;20544;-69
2022/06/07 11:49:46;;;;;;;7.70;2.22;;;;;;;18.34;35.18;101567.63;5094923;28;20039;-68
2022/06/07 11:52:11;;;;;;;8.77;1.50;;;;;;;18.40;34.92;101572.25;5094406;28;20079;-64
2022/06/07 11:54:46;;;;;;;5.60;1.50;;;;;;;18.41;34.66;101568.53;5094703;28;20105;-69
2022/06/07 11:57:32;;;;;;;2.92;1.52;;;;;;;18.44;34.78;101568.97;5098890;28;20405;-65
2022/06/07 11:59:57;;;;;;;1.85;1.33;;;;;;;18.46;34.93;101549.88;5113620;28;20040;-67
2022/06/07 12:02:36;;;;;;;29.58;20.30;;;;;;;18.61;35.90;101564.13;5114539;28;20544;-68